Sineira — CUJG9 — position and weather

sailwx.info

Track history (hours):
 
Tides and Currents Weather Stations Pressure Air Temp Water Temp Dewpoint Dewpoint Depression Visibility Wind Speed Wind Dir Waves Ship Positions

Sineira

Last reported at 2017-Nov-14 07:39 UTC. Time now 2017-Nov-21 23:12 UTC.
Position N 39°16' W 009°24'.

Length 25 m.

Type: Fishing. MMSI: 263430540.

Date/timePositionNaut miles runAvg speedWind from/ knotsBaromVisibWave heightAir tempDewpointWater temp
2017-Nov-14 07:39N 39°16' W 009°24'1 9.5
2017-Nov-14 07:30N 39°15' W 009°25'5 9.4
2017-Nov-14 07:00N 39°10' W 009°26'5 9.4
2017-Nov-14 06:31N 39°05' W 009°27'5 9.2
2017-Nov-14 06:00N 39°01' W 009°28'5 9.1
2017-Nov-14 05:31N 38°56' W 009°29'5 9.3
2017-Nov-14 05:00N 38°52' W 009°31'5 9.1
2017-Nov-14 04:30N 38°47' W 009°32'5 9.5
2017-Nov-14 04:01N 38°43' W 009°31'5 9.8
2017-Nov-14 03:31N 38°38' W 009°29'5 9.7
2017-Nov-14 03:01N 38°34' W 009°27'5 9.5
2017-Nov-14 02:31N 38°29' W 009°24'5 9.7
2017-Nov-14 02:00N 38°25' W 009°21'5 9.6
2017-Nov-14 01:30N 38°21' W 009°17'5 9.3
2017-Nov-14 01:00N 38°18' W 009°14'5 9.1
2017-Nov-14 00:30N 38°14' W 009°11'5 9.3
2017-Nov-14 00:01N 38°10' W 009°07'5 9.4
2017-Nov-13 23:30N 38°06' W 009°04'5 9.4
2017-Nov-13 23:01N 38°03' W 008°60'5 9.1
2017-Nov-13 22:31N 37°59' W 008°56'4 7.8
2017-Nov-13 22:00N 37°57' W 008°53'  
Track history (hours):
 
Tides and Currents Weather Stations Pressure Air Temp Water Temp Dewpoint Dewpoint Depression Visibility Wind Speed Wind Dir Waves Ship Positions

Sineira

Last reported at 2017-Nov-14 07:39 UTC. Time now 2017-Nov-21 23:12 UTC.
Position N 39°16' W 009°24'.

Length 25 m.

Type: Fishing. MMSI: 263430540.

Date/timePositionNaut miles runAvg speedWind from/ knotsBaromVisibWave heightAir tempDewpointWater temp
2017-Nov-14 07:39N 39°16' W 009°24'1 9.5
2017-Nov-14 07:30N 39°15' W 009°25'5 9.4
2017-Nov-14 07:00N 39°10' W 009°26'5 9.4
2017-Nov-14 06:31N 39°05' W 009°27'5 9.2
2017-Nov-14 06:00N 39°01' W 009°28'5 9.1
2017-Nov-14 05:31N 38°56' W 009°29'5 9.3
2017-Nov-14 05:00N 38°52' W 009°31'5 9.1
2017-Nov-14 04:30N 38°47' W 009°32'5 9.5
2017-Nov-14 04:01N 38°43' W 009°31'5 9.8
2017-Nov-14 03:31N 38°38' W 009°29'5 9.7
2017-Nov-14 03:01N 38°34' W 009°27'5 9.5
2017-Nov-14 02:31N 38°29' W 009°24'5 9.7
2017-Nov-14 02:00N 38°25' W 009°21'5 9.6
2017-Nov-14 01:30N 38°21' W 009°17'5 9.3
2017-Nov-14 01:00N 38°18' W 009°14'5 9.1
2017-Nov-14 00:30N 38°14' W 009°11'5 9.3
2017-Nov-14 00:01N 38°10' W 009°07'5 9.4
2017-Nov-13 23:30N 38°06' W 009°04'5 9.4
2017-Nov-13 23:01N 38°03' W 008°60'5 9.1
2017-Nov-13 22:31N 37°59' W 008°56'4 7.8
2017-Nov-13 22:00N 37°57' W 008°53'  

Dump ship's entire track history